createdAt,value
2023-02-16T00:04:18.055Z,0.0
2023-02-16T00:09:18.971Z,0.0
2023-02-16T00:14:19.926Z,0.0
2023-02-16T00:19:20.901Z,0.0
2023-02-16T00:24:21.824Z,0.0
2023-02-16T00:29:22.793Z,0.0
2023-02-16T00:34:23.808Z,0.0
2023-02-16T00:39:24.785Z,0.0
2023-02-16T00:44:25.921Z,0.0
2023-02-16T00:49:26.872Z,0.0
2023-02-16T00:54:29.353Z,0.0
2023-02-16T00:59:31.346Z,0.0
2023-02-16T01:04:32.384Z,0.0
2023-02-16T01:09:33.406Z,0.0
2023-02-16T01:14:34.357Z,0.0
2023-02-16T01:19:35.748Z,0.0
2023-02-16T01:24:37.041Z,0.0
2023-02-16T01:29:38.232Z,0.0
2023-02-16T01:34:39.424Z,0.0
2023-02-16T01:39:40.374Z,0.0
2023-02-16T01:44:41.328Z,0.0
2023-02-16T01:49:42.265Z,0.0
2023-02-16T01:54:43.187Z,0.0
2023-02-16T01:59:44.114Z,0.0
2023-02-16T02:04:45.051Z,0.0
2023-02-16T02:09:45.981Z,0.0
2023-02-16T02:14:47.223Z,0.0
2023-02-16T02:19:48.159Z,0.0
2023-02-16T02:24:49.092Z,0.0
2023-02-16T02:29:50.042Z,0.0
2023-02-16T02:34:50.965Z,0.0
2023-02-16T02:39:51.886Z,0.0
2023-02-16T02:44:52.830Z,0.0
2023-02-16T02:49:53.788Z,0.0
2023-02-16T02:54:54.881Z,0.0
2023-02-16T02:59:55.814Z,0.0
2023-02-16T03:04:56.753Z,0.0
2023-02-16T03:09:57.671Z,0.0
2023-02-16T03:14:58.614Z,0.0
2023-02-16T03:19:59.563Z,0.0
2023-02-16T03:25:00.631Z,0.0
2023-02-16T03:30:01.889Z,0.0
2023-02-16T03:35:02.861Z,0.0
2023-02-16T03:40:03.861Z,0.0
2023-02-16T03:45:04.793Z,0.0
2023-02-16T03:50:05.761Z,0.0
2023-02-16T03:55:06.681Z,0.0
2023-02-16T04:00:07.607Z,0.0
2023-02-16T04:05:08.583Z,0.0
2023-02-16T04:10:09.514Z,0.0
2023-02-16T04:15:10.430Z,0.0
2023-02-16T04:20:11.336Z,0.0
2023-02-16T04:25:12.397Z,0.0
2023-02-16T04:30:13.423Z,0.0
2023-02-16T04:35:14.392Z,0.0
2023-02-16T04:40:15.346Z,0.0
2023-02-16T04:45:16.290Z,0.0
2023-02-16T04:50:17.262Z,0.0
2023-02-16T04:55:18.158Z,0.0
2023-02-16T05:00:19.145Z,0.0
2023-02-16T05:05:20.283Z,0.0
2023-02-16T05:10:21.305Z,0.0
2023-02-16T05:15:22.252Z,0.0
2023-02-16T05:20:23.259Z,0.0
2023-02-16T05:25:24.286Z,0.0
2023-02-16T05:30:25.337Z,0.0
2023-02-16T05:35:26.313Z,0.0
2023-02-16T05:40:27.749Z,0.4148
2023-02-16T05:45:28.765Z,0.4148
2023-02-16T05:50:29.659Z,0.47405
2023-02-16T05:55:30.610Z,0.8296
2023-02-16T06:00:31.566Z,2.87705
2023-02-16T06:05:32.526Z,4.9776
2023-02-16T06:10:33.600Z,17.92595
2023-02-16T06:15:34.656Z,35.53815
2023-02-16T06:20:35.583Z,60.36105
2023-02-16T06:25:36.678Z,90.6243
2023-02-16T06:30:37.880Z,121.75465
2023-02-16T06:35:39.292Z,157.1635
2023-02-16T06:40:40.221Z,200.7053
2023-02-16T06:45:41.192Z,253.72635
2023-02-16T06:50:42.138Z,310.7863
2023-02-16T06:55:43.072Z,381.3644
2023-02-16T07:00:44.055Z,464.76085
2023-02-16T07:05:45.037Z,610.27155
2023-02-16T07:10:50.029Z,651.6171
2023-02-16T07:15:51.336Z,796.88635
2023-02-16T07:20:52.462Z,1022.5647
2023-02-16T07:25:53.366Z,1181.9796
2023-02-16T07:30:54.327Z,1318.3591
2023-02-16T07:35:55.350Z,1361.8629
2023-02-16T07:40:56.294Z,1442.98895
2023-02-16T07:45:57.380Z,1390.94345
2023-02-16T07:50:58.304Z,1475.42575
2023-02-16T07:55:59.274Z,1695.82735
2023-02-16T08:01:00.243Z,1795.52585
2023-02-16T08:06:01.244Z,1963.127
2023-02-16T08:11:02.608Z,1940.7001
2023-02-16T08:16:04.122Z,2215.24845
2023-02-16T08:21:05.544Z,2568.2321
2023-02-16T08:26:06.667Z,2523.287
2023-02-16T08:31:07.841Z,2402.3596
2023-02-16T08:36:08.808Z,2381.4236
2023-02-16T08:41:09.773Z,2385.03475
2023-02-16T08:46:10.806Z,2630.81075
2023-02-16T08:51:11.815Z,2710.2406
2023-02-16T08:56:12.747Z,2919.63405
2023-02-16T09:01:13.776Z,3029.05325
2023-02-16T09:06:14.702Z,2896.37435
2023-02-16T09:11:15.624Z,2965.8819
2023-02-16T09:16:16.727Z,3024.3813
2023-02-16T09:21:17.720Z,38008.1524
2023-02-16T09:26:18.650Z,38000.5728
2023-02-16T09:31:19.905Z,37993.6017
2023-02-16T09:36:20.879Z,37994.76355
2023-02-16T09:41:21.834Z,38008.70575
2023-02-16T09:46:22.972Z,38006.38205
2023-02-16T09:51:33.730Z,37992.43985
2023-02-16T09:56:35.664Z,37998.2491
2023-02-16T10:01:36.855Z,11965.7874
2023-02-16T10:06:38.052Z,9106.46715
2023-02-16T10:11:39.293Z,7771.4065
2023-02-16T10:16:40.277Z,7519.6748
2023-02-16T10:21:41.205Z,6922.17015
2023-02-16T10:26:42.165Z,6357.6195
2023-02-16T10:31:43.287Z,4935.0818
2023-02-16T10:36:44.289Z,4189.59445
2023-02-16T10:41:45.282Z,3969.6359
2023-02-16T10:46:46.273Z,3954.5147
2023-02-16T10:51:47.263Z,3829.5864
2023-02-16T10:56:48.238Z,3751.1358
2023-02-16T11:01:49.277Z,4248.81635
2023-02-16T11:06:50.381Z,3382.6032
2023-02-16T11:11:51.418Z,3680.15265
2023-02-16T11:16:52.346Z,4125.5861
2023-02-16T11:21:53.276Z,2984.3454
2023-02-16T11:26:54.313Z,3017.767
2023-02-16T11:31:55.394Z,2311.53555
2023-02-16T11:36:56.306Z,2849.8294
2023-02-16T11:41:57.243Z,2786.1121
2023-02-16T11:46:58.320Z,2576.01885
2023-02-16T11:51:59.295Z,2630.9947
2023-02-16T11:57:00.188Z,2673.28335
2023-02-16T12:02:01.301Z,3099.4464
2023-02-16T12:07:02.269Z,2981.7288
2023-02-16T12:12:03.189Z,2824.60145
2023-02-16T12:17:04.203Z,3055.46155
2023-02-16T12:22:05.110Z,3641.70315
2023-02-16T12:27:06.086Z,3275.4961
2023-02-16T12:32:07.442Z,4872.9995
2023-02-16T12:37:08.348Z,5574.37085
2023-02-16T12:42:09.418Z,5497.4626
2023-02-16T12:47:10.361Z,5018.944
2023-02-16T12:52:11.278Z,5918.35075
2023-02-16T12:57:12.359Z,4020.0005
2023-02-16T13:02:13.363Z,3435.4208
2023-02-16T13:07:14.318Z,2596.1545
2023-02-16T13:12:15.398Z,2414.83175
2023-02-16T13:17:16.585Z,3326.4692
2023-02-16T13:22:17.594Z,3423.0946
2023-02-16T13:27:18.503Z,2604.01725
2023-02-16T13:32:21.142Z,1800.4717
2023-02-16T13:37:23.281Z,1668.0398
2023-02-16T13:42:24.208Z,1553.69745
2023-02-16T13:47:25.129Z,1467.79285
2023-02-16T13:52:26.052Z,1482.3454
2023-02-16T13:57:27.014Z,1381.11615
2023-02-16T14:02:27.932Z,1305.5579
2023-02-16T14:07:28.869Z,1278.6699
2023-02-16T14:12:29.782Z,1056.04935
2023-02-16T14:17:30.712Z,942.70525
2023-02-16T14:22:31.627Z,958.89885
2023-02-16T14:27:32.584Z,911.46645
2023-02-16T14:32:33.545Z,913.69885
2023-02-16T14:37:34.485Z,937.69265
2023-02-16T14:42:35.440Z,857.1371
2023-02-16T14:47:37.183Z,781.5427
2023-02-16T14:52:38.547Z,679.85325
2023-02-16T14:57:39.769Z,570.36175
2023-02-16T15:02:40.769Z,489.84235
2023-02-16T15:07:41.734Z,418.89535
2023-02-16T15:12:42.690Z,360.896
2023-02-16T15:17:43.646Z,380.8509
2023-02-16T15:22:44.690Z,381.05435
2023-02-16T15:27:45.631Z,351.7495
2023-02-16T15:32:46.540Z,253.4886
2023-02-16T15:37:47.447Z,172.6003
2023-02-16T15:42:48.477Z,144.5866
2023-02-16T15:47:49.397Z,128.26555
2023-02-16T15:52:50.326Z,128.0811
2023-02-16T15:57:51.241Z,114.0096
2023-02-16T16:02:52.127Z,96.8766
2023-02-16T16:07:53.070Z,74.30325
2023-02-16T16:12:54.003Z,49.5355
2023-02-16T16:17:54.968Z,38.34105
2023-02-16T16:22:55.918Z,27.8844
2023-02-16T16:27:56.899Z,11.19445
2023-02-16T16:32:57.834Z,2.4888
2023-02-16T16:37:58.754Z,6.9711
2023-02-16T16:42:59.925Z,1.3463
2023-02-16T16:48:01.081Z,0.0
2023-02-16T16:53:02.049Z,0.4148
2023-02-16T16:58:03.038Z,0.4148
2023-02-16T17:03:04.157Z,0.0
2023-02-16T17:08:05.220Z,0.0
2023-02-16T17:13:06.308Z,0.0
2023-02-16T17:18:07.351Z,0.0
2023-02-16T17:23:08.522Z,0.0
2023-02-16T17:28:09.431Z,0.0
2023-02-16T17:33:10.498Z,0.0
2023-02-16T17:38:11.445Z,0.0
2023-02-16T17:43:12.340Z,0.0
2023-02-16T17:48:13.260Z,0.0
2023-02-16T17:53:14.193Z,0.0
2023-02-16T17:58:15.076Z,0.0
2023-02-16T18:03:16.027Z,0.0
2023-02-16T18:08:16.925Z,0.0
2023-02-16T18:13:17.842Z,0.0
2023-02-16T18:18:18.724Z,0.0
2023-02-16T18:23:19.618Z,0.0
2023-02-16T18:28:20.543Z,0.4148
2023-02-16T18:33:21.451Z,0.0
2023-02-16T18:38:22.485Z,0.0
2023-02-16T18:43:23.411Z,0.0
2023-02-16T18:48:24.300Z,0.0
2023-02-16T18:53:25.210Z,0.0
2023-02-16T18:58:26.164Z,0.0
2023-02-16T19:03:29.222Z,0.0
2023-02-16T19:08:31.153Z,0.0
2023-02-16T19:13:32.071Z,0.0
2023-02-16T19:18:32.984Z,0.0
2023-02-16T19:23:33.869Z,0.0
2023-02-16T19:28:34.775Z,0.0
2023-02-16T19:33:35.692Z,0.0
2023-02-16T19:38:36.767Z,0.0
2023-02-16T19:43:37.968Z,0.0
2023-02-16T19:48:39.179Z,0.0
2023-02-16T19:53:40.529Z,0.0
2023-02-16T19:58:41.449Z,0.0
2023-02-16T20:03:42.332Z,0.0
2023-02-16T20:08:43.251Z,0.0
2023-02-16T20:13:44.297Z,0.0
2023-02-16T20:18:45.348Z,0.0
2023-02-16T20:23:46.345Z,0.0
2023-02-16T20:28:47.310Z,0.0
2023-02-16T20:33:48.292Z,0.0
2023-02-16T20:38:49.231Z,0.0
2023-02-16T20:43:50.174Z,0.0
2023-02-16T20:48:51.102Z,0.0
2023-02-16T20:53:52.131Z,0.0
2023-02-16T20:58:53.055Z,0.0
2023-02-16T21:03:54.020Z,0.0
2023-02-16T21:08:54.983Z,0.0
2023-02-16T21:13:55.896Z,0.0
2023-02-16T21:18:56.878Z,0.0
2023-02-16T21:23:57.809Z,0.0
2023-02-16T21:28:58.744Z,0.0
2023-02-16T21:33:59.657Z,0.0
2023-02-16T21:39:01.614Z,0.0
2023-02-16T21:44:02.670Z,0.0
2023-02-16T21:49:03.646Z,0.0
2023-02-16T21:54:04.540Z,0.0
2023-02-16T21:59:05.561Z,0.0
2023-02-16T22:04:06.575Z,0.0
2023-02-16T22:09:07.597Z,0.0
2023-02-16T22:14:08.641Z,0.0
2023-02-16T22:19:09.685Z,0.0
2023-02-16T22:24:10.629Z,0.0
2023-02-16T22:29:11.576Z,0.0
2023-02-16T22:34:12.575Z,0.0
2023-02-16T22:39:13.658Z,0.0
2023-02-16T22:44:14.593Z,0.0
2023-02-16T22:49:15.644Z,0.0
2023-02-16T22:54:16.630Z,0.0
2023-02-16T22:59:22.603Z,0.0
2023-02-16T23:04:23.625Z,0.0
2023-02-16T23:09:24.564Z,0.0
2023-02-16T23:14:26.041Z,0.0
2023-02-16T23:19:27.591Z,0.0
2023-02-16T23:24:28.510Z,0.0
2023-02-16T23:29:29.477Z,0.0
2023-02-16T23:34:30.633Z,0.0
2023-02-16T23:39:31.517Z,0.0
2023-02-16T23:44:32.486Z,0.0
2023-02-16T23:49:33.407Z,0.0
2023-02-16T23:54:34.318Z,0.0
2023-02-16T23:59:35.215Z,0.0
